createdAt,value
2023-03-02T00:00:44.464Z,392.07
2023-03-02T00:05:51.816Z,392.55
2023-03-02T00:10:59.226Z,393.01
2023-03-02T00:16:06.668Z,392.85
2023-03-02T00:21:13.850Z,393.18
2023-03-02T00:26:21.100Z,394.07
2023-03-02T00:31:28.305Z,393.97
2023-03-02T00:36:35.464Z,393.96
2023-03-02T00:41:42.625Z,393.94
2023-03-02T00:46:49.839Z,394.32
2023-03-02T00:51:57.047Z,394.75
2023-03-02T00:57:04.191Z,394.54
2023-03-02T01:02:11.473Z,395.15
2023-03-02T01:07:18.706Z,396.05
2023-03-02T01:12:25.939Z,396.60
2023-03-02T01:17:33.208Z,397.15
2023-03-02T01:22:40.644Z,398.43
2023-03-02T01:27:56.949Z,398.23
2023-03-02T01:33:04.597Z,399.11
2023-03-02T01:38:13.379Z,399.28
2023-03-02T01:43:21.202Z,399.38
2023-03-02T01:48:28.654Z,399.22
2023-03-02T01:53:36.178Z,398.98
2023-03-02T01:58:43.424Z,399.37
2023-03-02T02:03:50.895Z,399.93
2023-03-02T02:08:58.317Z,400.11
2023-03-02T02:14:05.712Z,400.01
2023-03-02T02:19:13.096Z,400.39
2023-03-02T02:24:20.482Z,400.80
2023-03-02T02:29:27.907Z,401.22
2023-03-02T02:34:35.328Z,401.46
2023-03-02T02:39:42.783Z,401.79
2023-03-02T02:44:50.126Z,402.02
2023-03-02T02:49:57.531Z,401.83
2023-03-02T02:55:05.057Z,401.45
2023-03-02T03:00:12.554Z,401.89
2023-03-02T03:05:19.956Z,401.76
2023-03-02T03:10:27.533Z,402.11
2023-03-02T03:15:34.997Z,401.92
2023-03-02T03:20:42.361Z,401.19
2023-03-02T03:25:49.750Z,401.42
2023-03-02T03:30:57.099Z,401.11
2023-03-02T03:36:04.434Z,401.35
2023-03-02T03:41:11.753Z,401.42
2023-03-02T03:46:19.129Z,400.97
2023-03-02T03:51:26.386Z,401.52
2023-03-02T03:56:34.415Z,401.94
2023-03-02T04:01:41.378Z,401.85
2023-03-02T04:06:48.679Z,402.10
2023-03-02T04:11:56.011Z,402.08
2023-03-02T04:17:03.336Z,402.22
2023-03-02T04:22:10.745Z,402.13
2023-03-02T04:27:18.196Z,402.07
2023-03-02T04:32:25.672Z,401.39
2023-03-02T04:37:33.096Z,402.14
2023-03-02T04:42:40.392Z,401.77
2023-03-02T04:47:47.684Z,401.34
2023-03-02T04:52:54.922Z,401.56
2023-03-02T04:58:02.457Z,401.23
2023-03-02T05:03:09.721Z,401.18
2023-03-02T05:08:17.141Z,401.19
2023-03-02T05:13:24.456Z,400.96
2023-03-02T05:18:31.934Z,401.14
2023-03-02T05:23:39.174Z,400.91
2023-03-02T05:28:46.542Z,400.10
2023-03-02T05:33:53.844Z,400.31
2023-03-02T05:39:01.168Z,399.26
2023-03-02T05:44:08.658Z,399.47
2023-03-02T05:49:15.859Z,398.49
2023-03-02T05:54:23.438Z,398.00
2023-03-02T05:59:30.836Z,397.65
2023-03-02T06:04:38.111Z,397.53
2023-03-02T06:09:45.475Z,396.76
2023-03-02T06:14:52.780Z,396.06
2023-03-02T06:20:00.042Z,395.90
2023-03-02T06:25:07.361Z,395.70
2023-03-02T06:30:14.660Z,395.56
2023-03-02T06:35:22.043Z,395.45
2023-03-02T06:40:29.180Z,395.00
2023-03-02T06:45:36.588Z,394.55
2023-03-02T06:50:43.876Z,394.80
2023-03-02T06:55:51.266Z,393.58
2023-03-02T07:00:58.764Z,393.03
2023-03-02T07:06:06.261Z,392.59
2023-03-02T07:11:13.468Z,391.96
2023-03-02T07:16:20.857Z,392.07
2023-03-02T07:21:28.203Z,391.81
2023-03-02T07:26:35.583Z,390.81
2023-03-02T07:31:43.110Z,389.94
2023-03-02T07:36:50.392Z,390.03
2023-03-02T07:41:57.868Z,389.40
2023-03-02T07:47:05.289Z,389.22
2023-03-02T07:52:12.549Z,388.68
2023-03-02T07:57:20.038Z,387.79
2023-03-02T08:02:27.500Z,388.12
2023-03-02T08:07:34.736Z,387.73
2023-03-02T08:12:42.220Z,387.37
2023-03-02T08:17:49.572Z,387.02
2023-03-02T08:22:56.989Z,386.93
2023-03-02T08:28:04.293Z,386.34
2023-03-02T08:33:11.733Z,386.09
2023-03-02T08:38:19.429Z,385.94
2023-03-02T08:43:26.710Z,385.65
2023-03-02T08:48:34.112Z,385.58
2023-03-02T08:53:41.460Z,385.67
2023-03-02T08:58:48.924Z,385.74
2023-03-02T09:03:56.429Z,385.05
2023-03-02T09:09:03.820Z,385.64
2023-03-02T09:14:11.290Z,385.28
2023-03-02T09:19:18.801Z,385.67
2023-03-02T09:24:26.232Z,385.07
2023-03-02T09:29:33.515Z,385.10
2023-03-02T09:34:40.960Z,385.03
2023-03-02T09:39:48.429Z,384.93
2023-03-02T09:44:55.861Z,384.45
2023-03-02T09:50:03.331Z,384.27
2023-03-02T09:55:10.672Z,384.11
2023-03-02T10:00:20.203Z,383.00
2023-03-02T10:05:25.511Z,383.59
2023-03-02T10:10:32.802Z,383.82
2023-03-02T10:15:40.427Z,383.23
2023-03-02T10:20:47.859Z,383.66
2023-03-02T10:25:55.215Z,383.54
2023-03-02T10:31:05.113Z,384.16
2023-03-02T10:36:09.882Z,384.24
2023-03-02T10:41:17.195Z,383.14
2023-03-02T10:46:24.686Z,383.02
2023-03-02T10:51:32.067Z,383.28
2023-03-02T10:56:39.466Z,383.30
2023-03-02T11:01:46.857Z,383.33
2023-03-02T11:06:54.580Z,383.54
2023-03-02T11:12:02.899Z,383.16
2023-03-02T11:17:10.188Z,383.02
2023-03-02T11:22:17.458Z,383.02
2023-03-02T11:27:24.682Z,383.36
2023-03-02T11:32:32.181Z,382.78
2023-03-02T11:37:42.228Z,382.53
2023-03-02T11:42:49.620Z,382.71
2023-03-02T11:48:02.577Z,382.30
2023-03-02T11:53:04.402Z,382.52
2023-03-02T11:58:11.942Z,382.72
2023-03-02T12:03:19.338Z,382.32
2023-03-02T12:08:26.705Z,382.20
2023-03-02T12:13:34.026Z,382.53
2023-03-02T12:18:41.371Z,382.64
2023-03-02T12:23:48.758Z,382.65
2023-03-02T12:28:57.743Z,382.70
2023-03-02T12:34:03.486Z,382.78
2023-03-02T12:39:11.016Z,382.80
2023-03-02T12:44:19.934Z,383.07
2023-03-02T12:49:27.397Z,382.97
2023-03-02T12:54:34.869Z,383.25
2023-03-02T12:59:43.126Z,383.59
2023-03-02T13:04:50.474Z,383.69
2023-03-02T13:09:58.103Z,383.18
2023-03-02T13:15:05.301Z,383.65
2023-03-02T13:20:12.558Z,383.49
2023-03-02T13:25:19.919Z,383.40
2023-03-02T13:30:27.238Z,382.75
2023-03-02T13:35:34.458Z,382.38
2023-03-02T13:40:41.900Z,382.86
2023-03-02T13:45:49.281Z,382.92
2023-03-02T13:50:56.735Z,382.68
2023-03-02T13:56:04.132Z,382.45
2023-03-02T14:01:11.559Z,382.21
2023-03-02T14:06:18.943Z,382.20
2023-03-02T14:11:26.200Z,381.84
2023-03-02T14:16:33.986Z,381.45
2023-03-02T14:21:43.887Z,381.22
2023-03-02T14:26:48.837Z,381.30
2023-03-02T14:31:56.053Z,381.22
2023-03-02T14:37:03.346Z,380.71
2023-03-02T14:42:10.808Z,380.96
2023-03-02T14:47:18.339Z,380.72
2023-03-02T14:52:25.669Z,380.54
2023-03-02T14:57:33.185Z,380.39
2023-03-02T15:02:40.728Z,379.77
2023-03-02T15:07:48.115Z,379.81
2023-03-02T15:12:55.567Z,379.66
2023-03-02T15:18:02.926Z,379.86
2023-03-02T15:23:10.425Z,379.19
2023-03-02T15:28:17.718Z,379.30
2023-03-02T15:33:25.255Z,379.29
2023-03-02T15:38:32.735Z,379.09
2023-03-02T15:43:40.152Z,378.96
2023-03-02T15:48:47.399Z,378.54
2023-03-02T15:53:54.767Z,377.62
2023-03-02T15:59:05.296Z,377.06
2023-03-02T16:04:12.776Z,376.75
2023-03-02T16:09:20.198Z,376.91
2023-03-02T16:14:27.555Z,377.02
2023-03-02T16:19:34.887Z,376.43
2023-03-02T16:24:42.466Z,376.77
2023-03-02T16:29:50.208Z,376.22
2023-03-02T16:34:57.597Z,375.50
2023-03-02T16:40:04.891Z,375.40
2023-03-02T16:45:12.301Z,375.48
2023-03-02T16:50:19.607Z,373.95
2023-03-02T16:55:26.951Z,374.24
2023-03-02T17:00:34.288Z,373.40
2023-03-02T17:05:47.063Z,373.23
2023-03-02T17:10:54.492Z,372.74
2023-03-02T17:16:01.872Z,372.58
2023-03-02T17:21:09.018Z,372.87
2023-03-02T17:26:16.479Z,372.29
2023-03-02T17:31:23.906Z,372.09
2023-03-02T17:36:31.009Z,371.79
2023-03-02T17:41:38.231Z,370.88
2023-03-02T17:46:45.723Z,370.45
2023-03-02T17:51:52.981Z,370.30
2023-03-02T17:57:00.339Z,370.10
2023-03-02T18:02:08.060Z,369.03
2023-03-02T18:07:15.354Z,368.79
2023-03-02T18:12:22.571Z,368.25
2023-03-02T18:17:29.819Z,368.26
2023-03-02T18:22:37.056Z,368.49
2023-03-02T18:27:44.693Z,368.16
2023-03-02T18:32:52.208Z,368.02
2023-03-02T18:37:59.708Z,367.62
2023-03-02T18:43:07.130Z,367.49
2023-03-02T18:48:14.645Z,367.26
2023-03-02T18:53:22.235Z,367.19
2023-03-02T18:58:32.162Z,367.22
2023-03-02T19:03:37.839Z,367.30
2023-03-02T19:08:45.391Z,367.12
2023-03-02T19:13:52.971Z,367.20
2023-03-02T19:19:00.643Z,367.17
2023-03-02T19:24:08.228Z,367.49
2023-03-02T19:29:15.842Z,367.33
2023-03-02T19:34:23.355Z,367.27
2023-03-02T19:39:31.069Z,366.94
2023-03-02T19:44:38.689Z,367.20
2023-03-02T19:49:46.240Z,366.75
2023-03-02T19:54:53.823Z,366.41
2023-03-02T20:00:01.431Z,366.29
2023-03-02T20:05:09.061Z,366.19
2023-03-02T20:10:16.657Z,365.97
2023-03-02T20:15:24.369Z,365.60
2023-03-02T20:20:32.508Z,365.43
2023-03-02T20:25:39.902Z,365.44
2023-03-02T20:30:47.566Z,364.97
2023-03-02T20:35:55.166Z,364.70
2023-03-02T20:41:02.707Z,364.94
2023-03-02T20:46:10.312Z,364.65
2023-03-02T20:51:17.574Z,364.49
2023-03-02T20:56:25.082Z,364.19
2023-03-02T21:01:32.671Z,364.26
2023-03-02T21:06:39.733Z,364.05
2023-03-02T21:11:47.155Z,363.91
2023-03-02T21:16:54.571Z,363.88
2023-03-02T21:22:01.825Z,363.81
2023-03-02T21:27:09.335Z,364.00
2023-03-02T21:32:17.040Z,363.85
2023-03-02T21:37:24.328Z,363.60
2023-03-02T21:42:31.773Z,364.03
2023-03-02T21:47:39.064Z,364.46
2023-03-02T21:52:46.311Z,364.49
2023-03-02T21:57:53.434Z,365.10
2023-03-02T22:03:00.658Z,365.16
2023-03-02T22:08:07.962Z,364.99
2023-03-02T22:13:15.128Z,365.22
2023-03-02T22:18:22.422Z,365.57
2023-03-02T22:23:29.648Z,365.58
2023-03-02T22:28:36.853Z,366.08
2023-03-02T22:33:44.132Z,365.92
2023-03-02T22:38:51.497Z,366.10
2023-03-02T22:43:58.739Z,365.85
2023-03-02T22:49:06.006Z,365.83
2023-03-02T22:54:13.215Z,365.54
2023-03-02T22:59:20.408Z,365.44
2023-03-02T23:04:27.857Z,365.39
2023-03-02T23:09:35.057Z,365.21
2023-03-02T23:14:42.212Z,365.85
2023-03-02T23:19:49.400Z,365.98
2023-03-02T23:24:56.697Z,365.94
2023-03-02T23:30:04.079Z,366.31
2023-03-02T23:35:11.245Z,366.72
2023-03-02T23:40:18.555Z,366.87
2023-03-02T23:45:26.210Z,367.32
2023-03-02T23:50:33.626Z,367.07
2023-03-02T23:55:41.276Z,367.23
